createdAt,value
2017-06-27T00:00:41.033Z,3.30
2017-06-27T00:03:09.391Z,6.20
2017-06-27T00:05:37.655Z,5.20
2017-06-27T00:08:05.956Z,9.08
2017-06-27T00:10:34.224Z,5.56
2017-06-27T00:13:02.505Z,4.70
2017-06-27T00:15:30.796Z,6.26
2017-06-27T00:17:59.069Z,5.46
2017-06-27T00:20:27.357Z,4.86
2017-06-27T00:22:55.628Z,4.88
2017-06-27T00:25:23.912Z,5.12
2017-06-27T00:27:52.184Z,5.28
2017-06-27T00:30:20.477Z,5.34
2017-06-27T00:32:48.748Z,4.64
2017-06-27T00:35:17.050Z,6.14
2017-06-27T00:37:45.318Z,4.40
2017-06-27T00:40:13.621Z,5.56
2017-06-27T00:42:41.920Z,8.38
2017-06-27T00:45:10.200Z,5.18
2017-06-27T00:47:38.500Z,13.22
2017-06-27T00:50:06.768Z,7.46
2017-06-27T00:52:35.072Z,10.30
2017-06-27T00:55:03.338Z,7.62
2017-06-27T00:57:31.632Z,4.28
2017-06-27T00:59:59.920Z,4.80
2017-06-27T01:02:28.208Z,7.58
2017-06-27T01:04:56.500Z,8.02
2017-06-27T01:07:24.870Z,12.26
2017-06-27T01:09:53.173Z,4.52
2017-06-27T01:12:21.453Z,8.62
2017-06-27T01:14:49.779Z,6.30
2017-06-27T01:17:18.047Z,14.14
2017-06-27T01:19:46.317Z,4.68
2017-06-27T01:22:14.646Z,5.86
2017-06-27T01:24:42.913Z,3.96
2017-06-27T01:27:11.225Z,5.22
2017-06-27T01:29:39.491Z,4.60
2017-06-27T01:32:07.755Z,6.60
2017-06-27T01:34:36.052Z,6.30
2017-06-27T01:37:04.323Z,3.64
2017-06-27T01:39:32.621Z,6.08
2017-06-27T01:42:00.885Z,11.62
2017-06-27T01:44:29.184Z,4.08
2017-06-27T01:46:57.521Z,5.20
2017-06-27T01:49:25.820Z,4.88
2017-06-27T01:51:54.181Z,8.82
2017-06-27T01:54:22.446Z,3.86
2017-06-27T01:56:50.841Z,6.56
2017-06-27T01:59:19.139Z,10.64
2017-06-27T02:01:48.412Z,6.54
2017-06-27T02:04:16.704Z,4.02
2017-06-27T02:06:45.043Z,11.64
2017-06-27T02:09:13.357Z,3.86
2017-06-27T02:11:41.618Z,7.26
2017-06-27T02:14:09.880Z,4.64
2017-06-27T02:16:38.176Z,10.78
2017-06-27T02:19:06.442Z,3.54
2017-06-27T02:21:34.736Z,15.96
2017-06-27T02:24:03.005Z,7.86
2017-06-27T02:26:31.363Z,4.12
2017-06-27T02:28:58.869Z,8.84
2017-06-27T02:31:27.169Z,6.96
2017-06-27T02:33:55.429Z,7.98
2017-06-27T02:36:23.772Z,6.28
2017-06-27T02:38:52.048Z,6.60
2017-06-27T02:41:20.362Z,7.96
2017-06-27T02:43:48.636Z,6.86
2017-06-27T02:46:16.893Z,9.70
2017-06-27T02:48:45.185Z,6.10
2017-06-27T02:51:13.454Z,6.96
2017-06-27T02:53:41.751Z,8.66
2017-06-27T02:56:10.051Z,8.88
2017-06-27T02:58:38.352Z,6.66
2017-06-27T03:01:06.612Z,9.54
2017-06-27T03:03:34.906Z,7.80
2017-06-27T03:06:03.167Z,8.94
2017-06-27T03:08:31.455Z,9.18
2017-06-27T03:10:59.815Z,12.10
2017-06-27T03:13:28.120Z,8.94
2017-06-27T03:15:56.388Z,8.52
2017-06-27T03:18:24.652Z,5.90
2017-06-27T03:20:52.955Z,4.74
2017-06-27T03:23:21.220Z,5.42
2017-06-27T03:25:49.600Z,9.30
2017-06-27T03:28:17.912Z,8.64
2017-06-27T03:30:47.145Z,5.00
2017-06-27T03:33:15.411Z,6.32
2017-06-27T03:35:43.718Z,6.66
2017-06-27T03:38:11.985Z,8.06
2017-06-27T03:40:40.280Z,5.52
2017-06-27T03:43:08.555Z,10.24
2017-06-27T03:45:37.955Z,8.32
2017-06-27T03:48:06.230Z,5.38
2017-06-27T03:50:34.538Z,16.04
2017-06-27T03:53:02.802Z,9.94
2017-06-27T03:55:31.171Z,5.50
2017-06-27T03:57:59.431Z,8.40
2017-06-27T04:00:28.717Z,6.42
2017-06-27T04:02:57.029Z,6.76
2017-06-27T04:05:25.295Z,9.24
2017-06-27T04:07:53.590Z,8.12
2017-06-27T04:10:23.861Z,15.50
2017-06-27T04:12:52.193Z,7.06
2017-06-27T04:15:20.532Z,10.42
2017-06-27T04:17:48.804Z,13.44
2017-06-27T04:20:17.155Z,6.48
2017-06-27T04:22:45.422Z,5.32
2017-06-27T04:25:13.762Z,6.80
2017-06-27T04:27:42.034Z,10.24
2017-06-27T04:30:10.381Z,5.44
2017-06-27T04:32:38.667Z,6.80
2017-06-27T04:35:06.933Z,4.90
2017-06-27T04:37:35.239Z,12.04
2017-06-27T04:40:03.510Z,8.76
2017-06-27T04:42:31.806Z,10.06
2017-06-27T04:45:01.074Z,5.20
2017-06-27T04:47:29.392Z,5.42
2017-06-27T04:49:58.627Z,9.92
2017-06-27T04:52:26.890Z,8.14
2017-06-27T04:54:55.231Z,5.12
2017-06-27T04:57:23.498Z,7.92
2017-06-27T04:59:51.799Z,7.72
2017-06-27T05:02:20.059Z,5.70
2017-06-27T05:04:48.443Z,11.12
2017-06-27T05:07:16.712Z,9.20
2017-06-27T05:09:45.025Z,12.20
2017-06-27T05:12:13.294Z,4.92
2017-06-27T05:14:42.628Z,9.38
2017-06-27T05:17:10.921Z,9.76
2017-06-27T05:19:39.486Z,16.46
2017-06-27T05:22:07.790Z,9.98
2017-06-27T05:24:36.058Z,9.22
2017-06-27T05:27:04.356Z,12.90
2017-06-27T05:29:32.621Z,6.54
2017-06-27T05:32:00.917Z,12.00
2017-06-27T05:34:29.291Z,10.40
2017-06-27T05:36:57.566Z,11.26
2017-06-27T05:39:25.864Z,9.94
2017-06-27T05:41:54.137Z,17.82
2017-06-27T05:44:22.463Z,15.48
2017-06-27T05:46:49.961Z,9.68
2017-06-27T05:49:18.236Z,13.80
2017-06-27T05:51:46.531Z,11.30
2017-06-27T05:54:14.823Z,8.84
2017-06-27T05:56:43.082Z,8.16
2017-06-27T05:59:13.394Z,9.16
2017-06-27T06:01:41.669Z,17.20
2017-06-27T06:04:09.971Z,7.26
2017-06-27T06:06:38.276Z,13.32
2017-06-27T06:09:06.560Z,7.46
2017-06-27T06:11:36.784Z,8.42
2017-06-27T06:14:05.104Z,7.34
2017-06-27T06:16:34.354Z,10.04
2017-06-27T06:19:02.623Z,8.96
2017-06-27T06:21:30.944Z,13.56
2017-06-27T06:23:59.221Z,10.56
2017-06-27T06:26:27.537Z,13.90
2017-06-27T06:28:55.805Z,14.12
2017-06-27T06:31:24.091Z,11.08
2017-06-27T06:33:52.397Z,9.20
2017-06-27T06:36:20.676Z,10.82
2017-06-27T06:38:48.960Z,11.34
2017-06-27T06:41:17.266Z,15.64
2017-06-27T06:43:45.559Z,14.20
2017-06-27T06:46:13.852Z,18.44
2017-06-27T06:48:42.160Z,12.30
2017-06-27T06:51:10.440Z,14.56
2017-06-27T06:53:38.746Z,9.28
2017-06-27T06:56:07.024Z,12.00
2017-06-27T06:58:35.492Z,16.70
2017-06-27T07:01:03.764Z,11.66
2017-06-27T07:03:32.036Z,9.68
2017-06-27T07:06:01.235Z,10.80
2017-06-27T07:08:28.735Z,7.26
2017-06-27T07:10:57.054Z,8.32
2017-06-27T07:13:25.319Z,11.76
2017-06-27T07:15:53.577Z,9.66
2017-06-27T07:18:21.875Z,14.64
2017-06-27T07:20:50.137Z,13.00
2017-06-27T07:23:18.439Z,9.62
2017-06-27T07:25:46.713Z,12.36
2017-06-27T07:28:15.019Z,10.68
2017-06-27T07:30:43.432Z,9.22
2017-06-27T07:33:11.694Z,14.38
2017-06-27T07:35:39.967Z,8.96
2017-06-27T07:38:08.296Z,9.74
2017-06-27T07:40:36.571Z,7.16
2017-06-27T07:43:04.852Z,21.76
2017-06-27T07:45:33.153Z,10.32
2017-06-27T07:48:01.433Z,15.56
2017-06-27T07:50:29.769Z,13.28
2017-06-27T07:52:58.033Z,11.84
2017-06-27T07:55:26.297Z,13.66
2017-06-27T07:57:54.596Z,9.74
2017-06-27T08:00:22.877Z,16.80
2017-06-27T08:02:52.119Z,6.88
2017-06-27T08:05:20.394Z,11.24
2017-06-27T08:07:48.700Z,15.56
2017-06-27T08:10:17.013Z,16.10
2017-06-27T08:12:45.279Z,9.52
2017-06-27T08:15:13.549Z,12.76
2017-06-27T08:17:41.849Z,8.62
2017-06-27T08:20:10.111Z,11.38
2017-06-27T08:22:38.408Z,8.88
2017-06-27T08:25:06.678Z,13.44
2017-06-27T08:27:34.981Z,13.20
2017-06-27T08:30:03.254Z,14.02
2017-06-27T08:32:31.559Z,7.78
2017-06-27T08:34:59.056Z,11.22
2017-06-27T08:37:27.316Z,6.98
2017-06-27T08:39:55.634Z,14.24
2017-06-27T08:42:23.903Z,11.98
2017-06-27T08:44:52.170Z,13.26
2017-06-27T08:47:20.474Z,11.48
2017-06-27T08:49:48.780Z,11.22
2017-06-27T08:52:17.067Z,10.20
2017-06-27T08:54:45.337Z,14.16
2017-06-27T08:57:13.637Z,11.28
2017-06-27T08:59:41.146Z,11.26
2017-06-27T09:02:09.455Z,9.10
2017-06-27T09:04:37.741Z,10.72
2017-06-27T09:07:06.016Z,11.68
2017-06-27T09:09:34.323Z,13.52
2017-06-27T09:12:02.583Z,10.72
2017-06-27T09:14:30.880Z,10.08
2017-06-27T09:16:58.386Z,11.36
2017-06-27T09:19:26.000Z,6.44
2017-06-27T09:21:54.275Z,10.76
2017-06-27T09:24:22.562Z,12.82
2017-06-27T09:26:50.860Z,12.00
2017-06-27T09:29:19.131Z,12.06
2017-06-27T09:31:47.424Z,12.68
2017-06-27T09:34:15.687Z,12.96
2017-06-27T09:36:43.989Z,9.84
2017-06-27T09:39:12.259Z,14.38
2017-06-27T09:41:40.529Z,13.42
2017-06-27T09:44:08.820Z,10.34
2017-06-27T09:46:37.093Z,14.18
2017-06-27T09:49:05.383Z,9.96
2017-06-27T09:51:33.644Z,12.98
2017-06-27T09:54:01.960Z,10.08
2017-06-27T09:56:30.237Z,16.56
2017-06-27T09:58:58.555Z,20.62
2017-06-27T10:01:26.820Z,12.82
2017-06-27T10:03:55.079Z,12.74
2017-06-27T10:06:23.404Z,13.50
2017-06-27T10:08:51.679Z,17.86
2017-06-27T10:11:19.948Z,10.12
2017-06-27T10:13:48.250Z,9.92
2017-06-27T10:16:16.523Z,9.88
2017-06-27T10:18:44.836Z,16.34
2017-06-27T10:21:13.170Z,8.10
2017-06-27T10:23:41.453Z,9.86
2017-06-27T10:26:09.864Z,9.96
2017-06-27T10:28:38.127Z,10.52
2017-06-27T10:31:05.626Z,9.20
2017-06-27T10:33:33.940Z,11.00
2017-06-27T10:36:02.216Z,18.32
2017-06-27T10:38:30.490Z,18.84
2017-06-27T10:40:58.798Z,11.38
2017-06-27T10:43:27.112Z,30.66
2017-06-27T10:45:55.506Z,13.52
2017-06-27T10:48:23.809Z,12.96
2017-06-27T10:50:52.089Z,10.18
2017-06-27T10:53:20.392Z,10.70
2017-06-27T10:55:47.896Z,13.06
2017-06-27T10:58:16.199Z,9.00
2017-06-27T11:00:44.459Z,9.18
2017-06-27T11:03:12.734Z,10.70
2017-06-27T11:05:41.036Z,13.08
2017-06-27T11:08:09.295Z,8.68
2017-06-27T11:10:37.564Z,10.54
2017-06-27T11:13:05.860Z,10.32
2017-06-27T11:15:34.121Z,9.58
2017-06-27T11:18:02.416Z,9.58
2017-06-27T11:20:30.691Z,8.94
2017-06-27T11:22:59.008Z,8.42
2017-06-27T11:25:27.286Z,14.50
2017-06-27T11:27:55.606Z,12.42
2017-06-27T11:30:23.884Z,12.88
2017-06-27T11:32:52.197Z,11.38
2017-06-27T11:35:20.512Z,18.86
2017-06-27T11:37:48.768Z,9.10
2017-06-27T11:40:17.040Z,11.72
2017-06-27T11:42:45.337Z,10.90
2017-06-27T11:45:13.659Z,10.08
2017-06-27T11:47:41.924Z,11.18
2017-06-27T11:50:10.193Z,11.94
2017-06-27T11:52:38.484Z,12.46
2017-06-27T11:55:06.749Z,12.14
2017-06-27T11:57:35.068Z,9.78
2017-06-27T12:00:15.105Z,18.70
2017-06-27T12:02:43.476Z,31.62
2017-06-27T12:05:23.536Z,10.74
2017-06-27T12:07:51.142Z,12.08
2017-06-27T12:10:19.400Z,10.42
2017-06-27T12:12:47.660Z,11.52
2017-06-27T12:15:15.968Z,13.88
2017-06-27T12:17:44.238Z,10.70
2017-06-27T12:20:12.500Z,9.98
2017-06-27T12:22:42.241Z,11.08
2017-06-27T12:25:10.508Z,15.30
2017-06-27T12:27:38.783Z,13.10
2017-06-27T12:30:07.782Z,14.84
2017-06-27T12:32:36.050Z,10.04
2017-06-27T12:35:04.315Z,13.50
2017-06-27T12:37:32.642Z,19.26
2017-06-27T12:40:00.909Z,13.56
2017-06-27T12:42:29.172Z,32.36
2017-06-27T12:44:57.500Z,12.02
2017-06-27T12:47:25.769Z,12.42
2017-06-27T12:49:54.037Z,11.82
2017-06-27T12:52:22.352Z,17.74
2017-06-27T12:54:50.613Z,10.54
2017-06-27T12:57:18.875Z,9.38
2017-06-27T12:59:47.175Z,6.90
2017-06-27T13:02:15.442Z,8.06
2017-06-27T13:04:43.713Z,10.62
2017-06-27T13:07:12.708Z,11.46
2017-06-27T13:09:40.207Z,11.12
2017-06-27T13:12:08.468Z,9.62
2017-06-27T13:14:36.783Z,12.64
2017-06-27T13:17:04.291Z,12.68
2017-06-27T13:19:31.789Z,10.62
2017-06-27T13:22:01.229Z,11.90
2017-06-27T13:24:29.492Z,11.50
2017-06-27T13:26:57.764Z,15.16
2017-06-27T13:29:26.072Z,10.24
2017-06-27T13:31:54.346Z,12.18
2017-06-27T13:34:22.607Z,14.94
2017-06-27T13:36:50.158Z,11.14
2017-06-27T13:39:18.436Z,17.38
2017-06-27T13:41:46.696Z,8.94
2017-06-27T13:44:15.265Z,11.72
2017-06-27T13:46:43.527Z,20.16
2017-06-27T13:49:11.797Z,14.70
2017-06-27T13:51:40.117Z,16.02
2017-06-27T13:54:08.395Z,14.76
2017-06-27T13:56:36.664Z,16.38
2017-06-27T13:59:04.959Z,14.44
2017-06-27T14:01:33.284Z,20.24
2017-06-27T14:04:01.554Z,13.48
2017-06-27T14:06:29.812Z,20.42
2017-06-27T14:08:58.131Z,13.88
2017-06-27T14:11:26.397Z,13.42
2017-06-27T14:13:54.677Z,17.76
2017-06-27T14:16:22.972Z,16.26
2017-06-27T14:18:51.316Z,19.20
2017-06-27T14:21:19.612Z,13.50
2017-06-27T14:23:47.871Z,16.02
2017-06-27T14:26:25.035Z,12.26
2017-06-27T14:28:53.300Z,15.80
2017-06-27T14:31:21.569Z,16.54
2017-06-27T14:33:49.867Z,15.68
2017-06-27T14:36:18.130Z,16.30
2017-06-27T14:38:46.427Z,15.56
2017-06-27T14:41:14.697Z,14.74
2017-06-27T14:43:42.989Z,14.86
2017-06-27T14:46:11.330Z,15.66
2017-06-27T14:48:39.627Z,15.02
2017-06-27T14:51:07.892Z,12.72
2017-06-27T14:53:36.188Z,15.34
2017-06-27T14:56:05.425Z,13.94
2017-06-27T14:58:33.688Z,12.40
2017-06-27T15:01:01.965Z,11.24
2017-06-27T15:03:30.300Z,12.80
2017-06-27T15:05:58.571Z,10.00
2017-06-27T15:08:26.845Z,14.40
2017-06-27T15:10:55.196Z,17.44
2017-06-27T15:13:23.484Z,17.18
2017-06-27T15:15:51.768Z,13.98
2017-06-27T15:18:20.090Z,24.64
2017-06-27T15:20:48.363Z,14.30
2017-06-27T15:23:16.644Z,12.08
2017-06-27T15:25:44.956Z,16.90
2017-06-27T15:28:13.226Z,12.36
2017-06-27T15:30:41.498Z,13.22
2017-06-27T15:33:10.023Z,9.96
2017-06-27T15:35:38.289Z,13.58
2017-06-27T15:38:06.559Z,16.92
2017-06-27T15:40:34.863Z,14.02
2017-06-27T15:43:03.124Z,19.48
2017-06-27T15:45:30.621Z,13.58
2017-06-27T15:47:58.971Z,12.94
2017-06-27T15:50:27.248Z,15.04
2017-06-27T15:52:55.520Z,18.28
2017-06-27T15:55:23.916Z,17.24
2017-06-27T15:57:52.181Z,13.94
2017-06-27T16:00:20.481Z,15.28
2017-06-27T16:02:48.779Z,20.24
2017-06-27T16:05:17.046Z,20.28
2017-06-27T16:07:45.368Z,17.96
2017-06-27T16:10:13.640Z,13.06
2017-06-27T16:12:41.948Z,16.68
2017-06-27T16:15:10.227Z,22.26
2017-06-27T16:17:37.803Z,17.68
2017-06-27T16:20:06.068Z,13.20
2017-06-27T16:22:34.388Z,12.16
2017-06-27T16:25:02.681Z,18.42
2017-06-27T16:27:31.000Z,16.50
2017-06-27T16:29:59.268Z,17.54
2017-06-27T16:32:27.577Z,14.72
2017-06-27T16:34:55.844Z,17.42
2017-06-27T16:37:23.355Z,15.24
2017-06-27T16:39:51.654Z,14.68
2017-06-27T16:42:19.927Z,13.68
2017-06-27T16:44:48.239Z,25.44
2017-06-27T16:47:16.504Z,13.96
2017-06-27T16:49:44.780Z,15.94
2017-06-27T16:52:13.083Z,17.88
2017-06-27T16:54:41.384Z,15.74
2017-06-27T16:57:09.652Z,17.58
2017-06-27T16:59:37.916Z,18.26
2017-06-27T17:02:06.214Z,19.32
2017-06-27T17:04:34.486Z,17.94
2017-06-27T17:07:02.795Z,17.60
2017-06-27T17:09:31.056Z,17.30
2017-06-27T17:11:59.339Z,12.80
2017-06-27T17:14:27.644Z,16.86
2017-06-27T17:16:55.907Z,13.86
2017-06-27T17:19:24.200Z,19.64
2017-06-27T17:21:52.464Z,14.70
2017-06-27T17:24:20.768Z,17.70
2017-06-27T17:26:49.044Z,15.96
2017-06-27T17:29:17.343Z,14.54
2017-06-27T17:31:45.632Z,17.82
2017-06-27T17:34:13.963Z,14.80
2017-06-27T17:36:42.225Z,16.56
2017-06-27T17:39:10.499Z,17.48
2017-06-27T17:41:38.801Z,20.98
2017-06-27T17:44:07.063Z,17.30
2017-06-27T17:46:35.363Z,16.76
2017-06-27T17:49:03.637Z,17.04
2017-06-27T17:51:31.939Z,15.38
2017-06-27T17:54:00.213Z,17.02
2017-06-27T17:56:28.567Z,20.26
2017-06-27T17:58:56.831Z,20.82
2017-06-27T18:01:25.130Z,16.62
2017-06-27T18:03:53.428Z,13.80
2017-06-27T18:06:21.702Z,14.52
2017-06-27T18:08:50.003Z,16.78
2017-06-27T18:11:18.273Z,14.32
2017-06-27T18:13:46.564Z,15.12
2017-06-27T18:16:14.832Z,16.94
2017-06-27T18:18:43.129Z,17.76
2017-06-27T18:21:11.438Z,16.88
2017-06-27T18:23:39.713Z,14.52
2017-06-27T18:26:08.004Z,13.96
2017-06-27T18:28:36.298Z,15.68
2017-06-27T18:31:04.572Z,17.54
2017-06-27T18:33:32.872Z,16.92
2017-06-27T18:36:01.145Z,12.70
2017-06-27T18:38:29.442Z,17.02
2017-06-27T18:40:57.715Z,14.00
2017-06-27T18:43:26.004Z,14.16
2017-06-27T18:45:54.264Z,14.56
2017-06-27T18:48:21.812Z,17.04
2017-06-27T18:50:50.083Z,14.60
2017-06-27T18:53:18.378Z,14.28
2017-06-27T18:55:45.883Z,15.86
2017-06-27T18:58:14.185Z,16.84
2017-06-27T19:00:42.457Z,16.70
2017-06-27T19:03:10.759Z,16.22
2017-06-27T19:05:39.029Z,14.92
2017-06-27T19:08:07.393Z,15.34
2017-06-27T19:10:35.737Z,15.60
2017-06-27T19:13:04.099Z,16.86
2017-06-27T19:15:32.429Z,19.28
2017-06-27T19:18:00.792Z,18.66
2017-06-27T19:20:29.096Z,17.06
2017-06-27T19:22:57.430Z,22.38
2017-06-27T19:25:25.724Z,18.92
2017-06-27T19:27:54.002Z,14.82
2017-06-27T19:30:22.325Z,16.58
2017-06-27T19:32:50.599Z,17.24
2017-06-27T19:35:18.867Z,14.52
2017-06-27T19:37:47.165Z,17.74
2017-06-27T19:40:15.477Z,20.50
2017-06-27T19:42:43.750Z,13.62
2017-06-27T19:45:12.034Z,15.06
2017-06-27T19:47:40.334Z,19.50
2017-06-27T19:50:08.607Z,17.04
2017-06-27T19:52:36.909Z,18.54
2017-06-27T19:55:05.207Z,20.02
2017-06-27T19:57:33.476Z,17.32
2017-06-27T20:00:01.752Z,14.92
2017-06-27T20:02:30.162Z,14.58
2017-06-27T20:04:58.442Z,19.22
2017-06-27T20:07:26.703Z,15.38
2017-06-27T20:09:55.007Z,15.18
2017-06-27T20:12:23.368Z,17.82
2017-06-27T20:14:51.674Z,17.60
2017-06-27T20:17:19.956Z,16.22
2017-06-27T20:19:48.265Z,16.58
2017-06-27T20:22:16.541Z,15.14
2017-06-27T20:24:44.897Z,13.72
2017-06-27T20:27:13.193Z,26.20
2017-06-27T20:29:40.761Z,20.90
2017-06-27T20:32:09.165Z,19.50
2017-06-27T20:34:37.493Z,18.46
2017-06-27T20:37:05.789Z,15.52
2017-06-27T20:39:34.060Z,17.20
2017-06-27T20:42:02.412Z,21.22
2017-06-27T20:44:30.714Z,20.92
2017-06-27T20:46:59.048Z,21.78
2017-06-27T20:49:27.410Z,15.96
2017-06-27T20:51:55.746Z,18.74
2017-06-27T20:54:24.116Z,17.58
2017-06-27T20:56:52.390Z,17.14
2017-06-27T20:59:19.951Z,17.12
2017-06-27T21:01:48.312Z,17.14
2017-06-27T21:04:16.644Z,19.64
2017-06-27T21:06:44.937Z,17.86
2017-06-27T21:09:13.392Z,18.96
2017-06-27T21:11:41.765Z,18.60
2017-06-27T21:14:10.100Z,18.28
2017-06-27T21:16:38.427Z,17.28
2017-06-27T21:19:06.691Z,18.50
2017-06-27T21:21:34.958Z,21.18
2017-06-27T21:24:03.255Z,17.02
2017-06-27T21:26:31.525Z,18.32
2017-06-27T21:28:59.820Z,19.90
2017-06-27T21:31:28.152Z,17.62
2017-06-27T21:33:56.443Z,17.78
2017-06-27T21:36:24.745Z,16.64
2017-06-27T21:38:53.041Z,17.80
2017-06-27T21:41:21.300Z,16.08
2017-06-27T21:43:49.592Z,18.46
2017-06-27T21:46:17.893Z,17.34
2017-06-27T21:48:46.192Z,17.62
2017-06-27T21:51:14.491Z,21.38
2017-06-27T21:53:42.779Z,16.76
2017-06-27T21:56:11.056Z,14.96
2017-06-27T21:58:39.344Z,19.50
2017-06-27T22:01:07.603Z,17.96
2017-06-27T22:03:35.921Z,16.70
2017-06-27T22:06:04.186Z,21.74
2017-06-27T22:08:32.454Z,23.18
2017-06-27T22:11:00.748Z,19.98
2017-06-27T22:13:29.016Z,22.48
2017-06-27T22:15:57.312Z,16.44
2017-06-27T22:18:25.568Z,18.08
2017-06-27T22:20:53.862Z,18.28
2017-06-27T22:23:22.123Z,23.04
2017-06-27T22:25:50.415Z,19.34
2017-06-27T22:28:18.673Z,16.86
2017-06-27T22:30:46.975Z,16.66
2017-06-27T22:33:15.251Z,19.44
2017-06-27T22:35:43.521Z,21.68
2017-06-27T22:38:11.821Z,17.08
2017-06-27T22:40:40.086Z,24.18
2017-06-27T22:43:08.382Z,21.52
2017-06-27T22:45:36.640Z,22.40
2017-06-27T22:48:04.941Z,17.46
2017-06-27T22:50:33.201Z,19.42
2017-06-27T22:53:01.467Z,23.24
2017-06-27T22:55:29.750Z,16.80
2017-06-27T22:57:58.023Z,21.20
2017-06-27T23:00:26.308Z,17.78
2017-06-27T23:02:54.569Z,19.16
2017-06-27T23:05:22.873Z,16.14
2017-06-27T23:07:51.135Z,17.96
2017-06-27T23:10:19.434Z,18.30
2017-06-27T23:12:47.695Z,18.22
2017-06-27T23:15:15.221Z,18.62
2017-06-27T23:17:43.477Z,17.66
2017-06-27T23:20:11.019Z,15.90
2017-06-27T23:22:39.275Z,18.40
2017-06-27T23:25:07.544Z,18.62
2017-06-27T23:27:35.849Z,19.68
2017-06-27T23:30:04.099Z,18.44
2017-06-27T23:32:32.393Z,21.56
2017-06-27T23:35:00.655Z,19.70
2017-06-27T23:37:28.949Z,21.52
2017-06-27T23:39:57.249Z,16.76
2017-06-27T23:42:25.535Z,18.10
2017-06-27T23:44:53.849Z,18.80
2017-06-27T23:47:22.113Z,19.02
2017-06-27T23:49:50.382Z,16.76
2017-06-27T23:52:18.671Z,20.68
2017-06-27T23:54:46.972Z,19.44
2017-06-27T23:57:15.231Z,17.76
2017-06-27T23:59:43.527Z,17.40
